Time;durP1;ratioP1;P1;durP2;ratioP2;P2;SDS_P1;SDS_P2;PMS_P1;PMS_P2;Temp;Humidity;BMP_temperature;BMP_pressure;BME280_temperature;BME280_humidity;BME280_pressure;Samples;Min_cycle;Max_cycle;Signal;HPM_P1;HPM_P2
2021/01/11 00:01:51;;;;;;;6.30;3.00;;;3.50;91.40;;;;;;4950793;29;20166;-79
2021/01/11 00:16:05;;;;;;;6.13;2.95;;;3.50;91.50;;;;;;4912563;29;20055;-80
2021/01/11 00:18:36;;;;;;;7.18;3.58;;;3.50;91.40;;;;;;4956756;28;20505;-80
2021/01/11 00:25:10;;;;;;;6.38;3.25;;;3.50;91.50;;;;;;5008859;28;20048;-79
2021/01/11 00:31:31;;;;;;;5.97;3.22;;;3.50;91.50;;;;;;4968059;28;20043;-79
2021/01/11 00:34:37;;;;;;;8.50;4.00;;;3.50;91.50;;;;;;4972730;28;20053;-79
2021/01/11 00:38:14;;;;;;;9.93;4.07;;;3.50;91.50;;;;;;4972084;28;20074;-79
2021/01/11 00:41:53;;;;;;;8.88;4.22;;;3.50;91.50;;;;;;4913543;29;20154;-79
2021/01/11 00:48:21;;;;;;;8.02;4.10;;;3.50;91.50;;;;;;4849097;29;20454;-79
2021/01/11 00:50:47;;;;;;;8.38;4.13;;;3.50;91.50;;;;;;4841325;29;20045;-79
2021/01/11 00:53:12;;;;;;;8.85;4.57;;;3.50;91.50;;;;;;4840741;29;20085;-78
2021/01/11 00:55:38;;;;;;;8.02;3.92;;;3.50;91.60;;;;;;4841227;29;20038;-79
2021/01/11 00:58:04;;;;;;;8.57;4.05;;;3.50;91.60;;;;;;4840686;29;20079;-79
2021/01/11 01:00:29;;;;;;;8.10;4.30;;;3.50;91.60;;;;;;4840772;29;20054;-78
2021/01/11 01:02:55;;;;;;;9.20;4.80;;;3.50;91.60;;;;;;4841141;29;20042;-79
2021/01/11 01:05:21;;;;;;;8.23;3.80;;;3.40;91.60;;;;;;4841072;29;20050;-79
2021/01/11 01:07:47;;;;;;;9.30;4.45;;;3.50;91.60;;;;;;4859242;29;20054;-79
2021/01/11 01:10:13;;;;;;;10.20;4.75;;;3.60;91.70;;;;;;4938511;28;20042;-80
2021/01/11 01:12:40;;;;;;;10.27;5.32;;;3.40;91.60;;;;;;4991808;28;20483;-78
2021/01/11 01:15:07;;;;;;;10.82;5.47;;;3.40;91.70;;;;;;4992091;28;20053;-79
2021/01/11 01:17:36;;;;;;;9.80;5.43;;;3.40;91.70;;;;;;5015688;28;20076;-79
2021/01/11 01:20:05;;;;;;;8.85;4.70;;;3.40;91.70;;;;;;5075114;28;20040;-79
2021/01/11 01:22:31;;;;;;;8.50;4.57;;;3.40;91.70;;;;;;5093677;28;20503;-78
2021/01/11 01:24:57;;;;;;;9.20;4.57;;;3.40;91.80;;;;;;5093944;28;20128;-79
2021/01/11 01:27:23;;;;;;;9.63;4.85;;;3.30;91.70;;;;;;5093241;28;20042;-79
2021/01/11 01:29:48;;;;;;;10.98;5.20;;;3.40;91.80;;;;;;5042081;28;20047;-79
2021/01/11 01:32:14;;;;;;;10.45;5.20;;;3.30;91.80;;;;;;5092422;28;20122;-78
2021/01/11 01:34:40;;;;;;;8.27;4.57;;;3.40;91.80;;;;;;5093246;28;20036;-78
2021/01/11 01:37:05;;;;;;;9.88;4.65;;;3.40;91.80;;;;;;5093373;28;20067;-79
2021/01/11 01:39:31;;;;;;;9.75;4.78;;;3.40;91.80;;;;;;5074991;28;20036;-78
2021/01/11 01:41:57;;;;;;;9.07;4.30;;;3.30;91.80;;;;;;5093040;28;20134;-79
2021/01/11 01:44:22;;;;;;;10.32;4.88;;;3.40;91.80;;;;;;5093669;28;20492;-78
2021/01/11 01:46:48;;;;;;;10.95;5.55;;;3.40;91.80;;;;;;5058393;28;20077;-79
2021/01/11 01:49:14;;;;;;;11.65;5.63;;;3.40;91.80;;;;;;5093577;28;20044;-79
2021/01/11 01:51:41;;;;;;;9.80;4.65;;;3.40;91.80;;;;;;5093455;28;20039;-78
2021/01/11 01:54:08;;;;;;;10.73;5.13;;;3.40;91.90;;;;;;5092892;28;20136;-79
2021/01/11 01:56:34;;;;;;;11.43;5.93;;;3.40;91.80;;;;;;5075056;28;20056;-78
2021/01/11 01:58:59;;;;;;;9.88;4.95;;;3.40;91.80;;;;;;5092920;28;20043;-79
2021/01/11 02:01:25;;;;;;;9.63;4.65;;;3.30;91.80;;;;;;5074591;28;20044;-78
2021/01/11 02:03:51;;;;;;;13.68;6.35;;;3.30;91.80;;;;;;5092853;28;20478;-79
2021/01/11 02:06:17;;;;;;;11.73;5.78;;;3.40;91.80;;;;;;5092712;28;20497;-79
2021/01/11 02:08:54;;;;;;;12.35;6.28;;;3.40;91.90;;;;;;5092632;28;20035;-78
2021/01/11 02:11:44;;;;;;;14.07;7.28;;;3.40;91.90;;;;;;5074362;28;20386;-79
2021/01/11 02:14:31;;;;;;;14.63;7.18;;;3.30;91.90;;;;;;5092990;28;20044;-78
2021/01/11 02:17:08;;;;;;;12.30;6.18;;;3.40;91.90;;;;;;5093040;28;20047;-78
2021/01/11 02:20:05;;;;;;;13.45;6.15;;;3.30;91.90;;;;;;5093213;28;20351;-78
2021/01/11 02:22:42;;;;;;;12.57;6.20;;;3.30;91.90;;;;;;5074299;28;20063;-78
2021/01/11 02:25:25;;;;;;;13.18;6.18;;;3.30;91.90;;;;;;5074969;28;20401;-77
2021/01/11 02:28:00;;;;;;;10.57;5.53;;;3.30;91.90;;;;;;5092773;28;20394;-78
2021/01/11 02:30:30;;;;;;;9.25;5.10;;;3.30;92.00;;;;;;5074120;28;20097;-78
2021/01/11 02:33:01;;;;;;;11.10;5.15;;;3.20;91.90;;;;;;5092159;28;20048;-78
2021/01/11 02:35:29;;;;;;;8.95;4.75;;;3.20;92.00;;;;;;5092317;28;20067;-78
2021/01/11 02:37:58;;;;;;;9.68;4.93;;;3.20;92.00;;;;;;5092349;28;20051;-78
2021/01/11 02:40:24;;;;;;;12.27;4.75;;;3.20;92.00;;;;;;5074055;28;20055;-78
2021/01/11 02:42:50;;;;;;;13.43;6.25;;;3.20;92.00;;;;;;5074176;28;20142;-78
2021/01/11 02:45:16;;;;;;;10.80;5.57;;;3.20;92.00;;;;;;5092113;28;20064;-79
2021/01/11 02:47:59;;;;;;;10.07;4.85;;;3.20;92.00;;;;;;5091945;28;20127;-78
2021/01/11 02:50:26;;;;;;;12.20;5.20;;;3.10;92.00;;;;;;5092348;28;20044;-78
2021/01/11 02:53:06;;;;;;;9.50;4.88;;;3.20;92.10;;;;;;5092408;28;20090;-78
2021/01/11 02:55:42;;;;;;;9.50;5.13;;;3.20;92.10;;;;;;5073200;28;20402;-78
2021/01/11 02:58:19;;;;;;;12.93;5.97;;;3.20;92.10;;;;;;5091993;28;20061;-78
2021/01/11 03:00:48;;;;;;;9.38;4.50;;;3.20;92.10;;;;;;5091933;28;20036;-78
2021/01/11 03:03:15;;;;;;;10.25;5.05;;;3.20;92.10;;;;;;5091974;28;20490;-78
2021/01/11 03:05:42;;;;;;;13.10;5.45;;;3.20;92.10;;;;;;5092190;28;20523;-78
2021/01/11 03:08:07;;;;;;;13.38;6.70;;;3.20;92.10;;;;;;5092345;28;20355;-77
2021/01/11 03:10:33;;;;;;;13.38;6.03;;;3.10;92.10;;;;;;5092330;28;20063;-78
2021/01/11 03:12:59;;;;;;;13.25;5.88;;;3.10;92.10;;;;;;5074189;28;20055;-78
2021/01/11 03:15:25;;;;;;;12.95;6.53;;;3.10;92.10;;;;;;5091709;28;20036;-78
2021/01/11 03:17:50;;;;;;;11.65;5.50;;;3.10;92.10;;;;;;5091663;28;20040;-78
2021/01/11 03:20:16;;;;;;;13.25;6.32;;;3.00;92.10;;;;;;5091671;28;20047;-78
2021/01/11 03:22:42;;;;;;;14.98;6.75;;;3.10;92.10;;;;;;5091791;28;20040;-78
2021/01/11 03:25:08;;;;;;;13.60;5.93;;;3.00;92.10;;;;;;5092176;28;20105;-79
2021/01/11 03:27:34;;;;;;;12.45;6.10;;;3.10;92.20;;;;;;5092003;28;20064;-78
2021/01/11 03:30:00;;;;;;;13.35;5.85;;;3.10;92.10;;;;;;5073498;28;20141;-78
2021/01/11 03:32:26;;;;;;;10.80;4.85;;;3.00;92.10;;;;;;5091443;28;20051;-78
2021/01/11 03:34:52;;;;;;;10.00;4.57;;;3.10;92.20;;;;;;5092102;28;20054;-78
2021/01/11 03:37:18;;;;;;;11.32;5.10;;;3.00;92.20;;;;;;5091358;28;20044;-78
2021/01/11 03:39:45;;;;;;;12.95;5.43;;;3.00;92.10;;;;;;5091966;28;20043;-79
2021/01/11 03:42:10;;;;;;;16.55;7.03;;;3.10;92.20;;;;;;5091321;28;20114;-78
2021/01/11 03:44:36;;;;;;;14.10;7.43;;;3.00;92.20;;;;;;5091379;28;20124;-78
2021/01/11 03:47:02;;;;;;;14.32;6.70;;;2.90;92.10;;;;;;5091562;28;20047;-78
2021/01/11 03:49:28;;;;;;;15.10;6.70;;;2.90;92.20;;;;;;5091282;28;20048;-77
2021/01/11 03:52:01;;;;;;;17.25;6.95;;;3.00;92.20;;;;;;5091761;28;20485;-78
2021/01/11 03:54:28;;;;;;;18.48;8.10;;;3.00;92.50;;;;;;5091336;28;20036;-79
2021/01/11 03:56:54;;;;;;;15.95;7.28;;;2.90;92.20;;;;;;5093971;28;20032;-79
2021/01/11 03:59:20;;;;;;;16.77;7.35;;;2.80;92.20;;;;;;5094687;28;20141;-78
2021/01/11 04:01:46;;;;;;;17.45;7.28;;;2.90;92.30;;;;;;5094584;28;20044;-78
2021/01/11 04:04:11;;;;;;;17.23;7.50;;;2.90;92.30;;;;;;5094594;28;20101;-78
2021/01/11 04:06:37;;;;;;;13.18;6.07;;;2.80;92.30;;;;;;5094477;28;20055;-79
2021/01/11 04:09:03;;;;;;;14.75;6.30;;;2.70;92.30;;;;;;5095104;28;20123;-78
2021/01/11 04:11:29;;;;;;;13.07;5.78;;;2.80;92.30;;;;;;5094439;28;20039;-78
2021/01/11 04:13:55;;;;;;;13.95;5.80;;;2.80;92.30;;;;;;5076324;28;20044;-78
2021/01/11 04:16:20;;;;;;;13.02;5.50;;;2.70;92.30;;;;;;5094513;28;20032;-78
2021/01/11 04:18:47;;;;;;;13.48;5.78;;;2.70;92.30;;;;;;5094458;28;20040;-78
2021/01/11 04:21:13;;;;;;;12.00;5.07;;;2.80;92.40;;;;;;5095027;28;20486;-78
2021/01/11 04:23:39;;;;;;;10.85;4.85;;;2.70;92.40;;;;;;5094559;28;20035;-79
2021/01/11 04:26:07;;;;;;;12.38;4.65;;;2.70;92.40;;;;;;5094491;28;20032;-79
2021/01/11 04:28:32;;;;;;;12.73;6.00;;;2.70;92.40;;;;;;5094282;28;20489;-78
2021/01/11 04:30:58;;;;;;;16.95;7.20;;;2.70;92.40;;;;;;5076164;28;20067;-78
2021/01/11 04:33:24;;;;;;;17.50;6.40;;;2.70;92.40;;;;;;5094040;28;20044;-78
2021/01/11 04:35:49;;;;;;;16.42;7.20;;;2.60;92.40;;;;;;5059085;28;20401;-79
2021/01/11 04:38:15;;;;;;;14.00;5.90;;;2.60;92.40;;;;;;5094303;28;20043;-79
2021/01/11 04:40:41;;;;;;;19.55;7.25;;;2.60;92.40;;;;;;5094279;28;20504;-78
2021/01/11 04:43:23;;;;;;;19.35;6.43;;;2.60;92.40;;;;;;5075782;28;20048;-78
2021/01/11 04:45:49;;;;;;;13.75;5.57;;;2.60;92.50;;;;;;5075795;28;20040;-79
2021/01/11 04:48:15;;;;;;;12.50;6.00;;;2.60;92.50;;;;;;5093928;28;20542;-78
2021/01/11 04:50:41;;;;;;;16.90;6.32;;;2.60;92.50;;;;;;5094262;28;20088;-79
2021/01/11 04:53:08;;;;;;;13.23;5.80;;;2.60;92.50;;;;;;5094006;28;20517;-79
2021/01/11 04:55:36;;;;;;;19.45;7.55;;;2.60;92.50;;;;;;5093716;28;20101;-79
2021/01/11 04:58:08;;;;;;;11.95;5.70;;;2.60;92.50;;;;;;5058998;28;20622;-79
2021/01/11 05:00:34;;;;;;;17.88;6.63;;;2.60;92.50;;;;;;5093880;28;20032;-79
2021/01/11 05:03:03;;;;;;;13.52;5.50;;;2.60;92.50;;;;;;5094311;28;20148;-79
2021/01/11 05:05:31;;;;;;;15.00;6.40;;;2.60;92.50;;;;;;5093962;28;20043;-80
2021/01/11 05:07:58;;;;;;;17.05;6.43;;;2.60;92.50;;;;;;5092443;28;20426;-79
2021/01/11 05:10:27;;;;;;;15.35;6.32;;;2.60;92.50;;;;;;5093670;28;20047;-78
2021/01/11 05:12:56;;;;;;;11.90;5.53;;;2.60;92.50;;;;;;5093644;28;20047;-79
2021/01/11 05:15:23;;;;;;;16.02;6.68;;;2.50;92.50;;;;;;5093528;28;20043;-79
2021/01/11 05:17:49;;;;;;;13.13;5.60;;;2.60;92.60;;;;;;5093428;28;20498;-78
2021/01/11 05:20:19;;;;;;;19.52;6.40;;;2.50;92.50;;;;;;5093507;28;20036;-79
2021/01/11 05:22:48;;;;;;;16.42;6.40;;;2.50;92.50;;;;;;5093912;28;20040;-78
2021/01/11 05:25:17;;;;;;;18.35;7.00;;;2.60;92.60;;;;;;5093415;28;20040;-78
2021/01/11 05:27:44;;;;;;;14.90;5.70;;;2.60;92.60;;;;;;5075921;28;20079;-78
2021/01/11 05:30:35;;;;;;;13.75;5.68;;;2.60;92.60;;;;;;5093246;28;20046;-78
2021/01/11 05:33:01;;;;;;;11.95;5.20;;;2.60;92.60;;;;;;5093390;28;20153;-78
2021/01/11 05:35:27;;;;;;;15.45;5.95;;;2.60;92.60;;;;;;5093969;28;20473;-79
2021/01/11 05:37:54;;;;;;;18.13;6.70;;;2.60;92.60;;;;;;5093445;28;20032;-79
2021/01/11 05:40:23;;;;;;;17.38;6.50;;;2.70;92.60;;;;;;5093456;28;20032;-79
2021/01/11 05:42:53;;;;;;;17.30;6.68;;;2.70;92.60;;;;;;5093198;28;20055;-79
2021/01/11 05:45:28;;;;;;;16.25;6.68;;;2.70;92.60;;;;;;5075722;28;20485;-79
2021/01/11 05:48:08;;;;;;;13.55;5.88;;;2.70;92.60;;;;;;5093279;28;20039;-78
2021/01/11 05:50:37;;;;;;;12.40;5.30;;;2.70;92.60;;;;;;5092913;28;20433;-79
2021/01/11 05:53:04;;;;;;;17.00;7.68;;;2.70;92.60;;;;;;5074577;28;20402;-78
2021/01/11 05:55:32;;;;;;;15.43;6.38;;;2.70;92.60;;;;;;5092916;28;20040;-79
2021/01/11 05:58:03;;;;;;;11.90;5.18;;;2.70;92.60;;;;;;5092560;28;20126;-79
2021/01/11 06:00:31;;;;;;;11.10;5.47;;;2.70;92.60;;;;;;5093033;28;20040;-78
2021/01/11 06:02:57;;;;;;;15.00;6.95;;;2.80;92.60;;;;;;5093069;28;20036;-78
2021/01/11 06:05:24;;;;;;;14.15;6.35;;;2.80;92.60;;;;;;5074585;28;20048;-79
2021/01/11 06:07:50;;;;;;;13.18;5.45;;;2.80;92.60;;;;;;5092812;28;20122;-79
2021/01/11 06:10:18;;;;;;;11.32;5.20;;;2.80;92.60;;;;;;5092754;28;20074;-78
2021/01/11 06:12:45;;;;;;;14.93;6.35;;;2.80;92.90;;;;;;5092936;28;20058;-78
2021/01/11 06:15:13;;;;;;;15.07;6.32;;;2.80;92.60;;;;;;5093008;28;20044;-79
2021/01/11 06:17:40;;;;;;;18.23;7.13;;;2.90;92.60;;;;;;5092530;28;20155;-79
2021/01/11 06:20:08;;;;;;;14.82;6.60;;;2.90;92.60;;;;;;5092649;28;20393;-78
2021/01/11 06:22:59;;;;;;;12.25;5.65;;;2.90;92.60;;;;;;5092317;28;20119;-78
2021/01/11 06:25:33;;;;;;;15.20;7.03;;;2.90;92.60;;;;;;5078665;28;20036;-78
2021/01/11 06:28:13;;;;;;;15.32;7.55;;;2.90;92.60;;;;;;5074233;28;20093;-78
2021/01/11 06:30:41;;;;;;;19.40;7.90;;;3.00;92.60;;;;;;5092342;28;20146;-79
2021/01/11 06:33:10;;;;;;;19.40;8.15;;;3.00;92.50;;;;;;5074138;28;20040;-78
2021/01/11 06:35:44;;;;;;;18.27;8.82;;;3.00;92.60;;;;;;5074491;28;20069;-78
2021/01/11 06:38:21;;;;;;;16.30;8.32;;;3.00;92.60;;;;;;5092495;28;20046;-78
2021/01/11 06:40:54;;;;;;;17.67;8.20;;;3.10;92.60;;;;;;5093142;28;20055;-78
2021/01/11 06:43:22;;;;;;;21.10;9.80;;;3.10;92.60;;;;;;5074624;28;20093;-77
2021/01/11 06:45:49;;;;;;;19.10;8.63;;;3.00;92.60;;;;;;5092834;28;20040;-77
2021/01/11 06:48:19;;;;;;;16.67;7.90;;;3.00;92.60;;;;;;5090733;28;20048;-78
2021/01/11 06:50:47;;;;;;;15.95;8.70;;;3.10;92.60;;;;;;5057575;28;20044;-77
2021/01/11 06:53:13;;;;;;;17.48;8.63;;;3.00;92.60;;;;;;5092493;28;20059;-77
2021/01/11 06:55:39;;;;;;;14.38;6.72;;;3.10;92.70;;;;;;5092214;28;20074;-78
2021/01/11 06:58:05;;;;;;;14.68;7.03;;;3.10;92.70;;;;;;5092508;28;20039;-78
2021/01/11 07:00:38;;;;;;;18.55;9.27;;;3.10;92.70;;;;;;5092132;28;20032;-79
2021/01/11 07:03:07;;;;;;;20.08;10.18;;;3.10;92.70;;;;;;5092606;28;20485;-77
2021/01/11 07:05:39;;;;;;;20.75;10.65;;;3.00;92.60;;;;;;5092098;28;20043;-78
2021/01/11 07:08:07;;;;;;;15.75;8.63;;;3.10;92.70;;;;;;5092077;28;20075;-78
2021/01/11 07:10:34;;;;;;;15.38;7.97;;;3.00;92.70;;;;;;5092131;28;20075;-78
2021/01/11 07:13:24;;;;;;;19.35;8.82;;;3.10;92.70;;;;;;5074483;28;20119;-78
2021/01/11 07:16:10;;;;;;;17.15;8.75;;;3.10;92.70;;;;;;5092079;28;20048;-77
2021/01/11 07:18:45;;;;;;;14.13;7.72;;;3.10;92.70;;;;;;5076457;28;20127;-79
2021/01/11 07:21:13;;;;;;;18.27;9.80;;;3.10;92.70;;;;;;5092064;28;20456;-79
2021/01/11 07:23:39;;;;;;;18.27;9.43;;;3.10;92.70;;;;;;5094096;28;20044;-78
2021/01/11 07:26:15;;;;;;;16.08;8.52;;;3.10;92.70;;;;;;5074642;28;20036;-83
2021/01/11 07:28:49;;;;;;;15.00;8.23;;;3.10;92.70;;;;;;5057510;28;20044;-77
2021/01/11 07:31:21;;;;;;;15.65;8.98;;;3.00;92.70;;;;;;5095736;28;20063;-79
2021/01/11 07:33:51;;;;;;;15.50;8.65;;;3.20;92.70;;;;;;5044559;28;20031;-78
2021/01/11 07:36:19;;;;;;;16.05;8.57;;;3.10;92.70;;;;;;5077509;28;20040;-78
2021/01/11 07:38:45;;;;;;;17.02;9.30;;;3.10;92.70;;;;;;5095093;28;20039;-77
2021/01/11 07:41:24;;;;;;;18.67;9.85;;;3.10;92.70;;;;;;5095230;28;20093;-77
2021/01/11 07:43:52;;;;;;;13.98;7.88;;;3.10;92.70;;;;;;5095333;28;20040;-80
2021/01/11 07:46:24;;;;;;;14.25;8.18;;;3.10;92.70;;;;;;5061211;28;20099;-83
2021/01/11 07:48:50;;;;;;;17.13;9.45;;;3.10;92.70;;;;;;5060389;28;20504;-78
2021/01/11 07:51:16;;;;;;;16.63;9.40;;;3.10;92.70;;;;;;5094631;28;20083;-75
2021/01/11 07:53:42;;;;;;;18.30;10.10;;;3.20;92.70;;;;;;5095449;28;20035;-76
2021/01/11 07:56:08;;;;;;;18.45;9.88;;;3.20;92.70;;;;;;5080746;28;20800;-79
2021/01/11 07:58:36;;;;;;;15.13;9.48;;;3.40;92.80;;;;;;5096821;28;20048;-78
2021/01/11 08:01:05;;;;;;;18.08;9.13;;;3.10;92.70;;;;;;5077123;28;20028;-78
2021/01/11 08:03:32;;;;;;;17.63;9.95;;;3.10;92.80;;;;;;5035085;28;20402;-77
2021/01/11 08:06:03;;;;;;;16.75;9.48;;;3.20;92.70;;;;;;5035547;28;20120;-77
2021/01/11 08:08:32;;;;;;;17.95;9.27;;;3.20;92.70;;;;;;4995622;28;20042;-76
2021/01/11 08:11:00;;;;;;;15.80;8.32;;;3.20;92.70;;;;;;5012498;28;20542;-76
2021/01/11 08:13:25;;;;;;;13.15;7.43;;;3.20;92.80;;;;;;5013143;28;20099;-76
2021/01/11 08:16:24;;;;;;;11.88;6.78;;;3.20;92.70;;;;;;5012729;28;20046;-78
2021/01/11 08:18:55;;;;;;;15.68;8.60;;;3.20;92.70;;;;;;4980571;28;20532;-78
2021/01/11 08:21:20;;;;;;;15.57;8.77;;;3.20;92.80;;;;;;5012604;28;20432;-76
2021/01/11 08:24:07;;;;;;;16.67;8.43;;;3.20;92.70;;;;;;4997594;28;20080;-83
2021/01/11 08:26:46;;;;;;;15.75;8.88;;;3.20;92.70;;;;;;4979967;28;20511;-77
2021/01/11 08:29:26;;;;;;;17.90;9.93;;;3.20;92.70;;;;;;5012247;28;20056;-78
2021/01/11 08:31:53;;;;;;;16.63;9.50;;;3.20;92.70;;;;;;4985666;28;20069;-77
2021/01/11 08:34:19;;;;;;;17.10;8.68;;;3.20;92.70;;;;;;4993608;28;20037;-77
2021/01/11 08:36:45;;;;;;;13.52;7.30;;;3.30;92.80;;;;;;5032903;28;20148;-77
2021/01/11 08:39:15;;;;;;;12.00;7.07;;;3.30;92.70;;;;;;5015165;28;20049;-77
2021/01/11 08:41:46;;;;;;;13.93;7.93;;;3.40;92.80;;;;;;5031834;28;20120;-77
2021/01/11 08:44:25;;;;;;;13.40;7.25;;;3.30;92.70;;;;;;5015246;28;20073;-77
2021/01/11 08:46:58;;;;;;;14.23;8.32;;;3.30;92.70;;;;;;5031647;28;20046;-80
2021/01/11 08:49:27;;;;;;;15.88;8.30;;;3.30;92.70;;;;;;5015157;28;20033;-79
2021/01/11 08:52:05;;;;;;;14.52;7.28;;;3.30;92.70;;;;;;5015036;28;20041;-81
2021/01/11 08:54:33;;;;;;;14.70;8.02;;;3.30;92.70;;;;;;5015193;28;20399;-80
2021/01/11 08:57:09;;;;;;;12.77;7.05;;;3.20;92.70;;;;;;5042186;28;20064;-78
2021/01/11 08:59:51;;;;;;;15.48;7.70;;;3.30;92.70;;;;;;5072024;28;20048;-77
2021/01/11 09:02:25;;;;;;;;;;;3.40;92.80;;;;;;5055764;28;20371;-77
2021/01/11 09:04:51;;;;;;;15.50;7.80;;;3.40;92.70;;;;;;5071514;28;19951;-77
2021/01/11 09:07:26;;;;;;;13.60;8.10;;;3.30;92.70;;;;;;5054910;28;20466;-77
2021/01/11 09:09:51;;;;;;;14.25;7.78;;;3.30;92.70;;;;;;5071836;28;20051;-78
2021/01/11 09:12:29;;;;;;;14.32;7.65;;;3.30;92.70;;;;;;5055369;28;20037;-77
2021/01/11 09:14:55;;;;;;;12.82;6.38;;;3.30;92.70;;;;;;5055444;28;20028;-77
2021/01/11 09:17:36;;;;;;;10.95;5.72;;;3.40;92.80;;;;;;5055563;28;20044;-77
2021/01/11 09:20:05;;;;;;;11.63;6.35;;;3.40;92.70;;;;;;5079963;28;20079;-76
2021/01/11 09:22:35;;;;;;;10.70;6.47;;;3.40;92.70;;;;;;5093940;28;20039;-76
2021/01/11 09:25:04;;;;;;;10.95;6.25;;;3.50;92.70;;;;;;5093546;28;20047;-75
2021/01/11 09:27:30;;;;;;;11.57;6.15;;;3.40;92.70;;;;;;5074491;28;20481;-78
2021/01/11 09:29:56;;;;;;;13.18;7.70;;;3.40;92.70;;;;;;5075583;28;20145;-78
2021/01/11 09:32:22;;;;;;;12.40;6.70;;;3.40;92.70;;;;;;5075840;28;20044;-77
2021/01/11 09:34:49;;;;;;;13.07;6.90;;;3.50;92.70;;;;;;5093191;28;20501;-78
2021/01/11 09:37:15;;;;;;;11.95;6.97;;;3.40;92.70;;;;;;5058990;28;20055;-77
2021/01/11 09:39:46;;;;;;;10.82;6.35;;;3.50;92.70;;;;;;5093653;28;20505;-79
2021/01/11 09:42:16;;;;;;;11.45;6.90;;;3.60;92.70;;;;;;5058606;28;20055;-78
2021/01/11 09:44:42;;;;;;;13.77;6.95;;;3.60;92.70;;;;;;5059017;28;20040;-79
2021/01/11 09:47:12;;;;;;;11.57;6.85;;;3.60;92.60;;;;;;5041882;28;20059;-79
2021/01/11 09:49:42;;;;;;;12.15;6.63;;;3.60;92.70;;;;;;5058301;28;20039;-82
2021/01/11 09:52:17;;;;;;;11.43;6.65;;;3.70;92.70;;;;;;5053888;28;20039;-80
2021/01/11 09:54:55;;;;;;;13.05;7.35;;;3.60;92.60;;;;;;5073658;28;20054;-80
2021/01/11 09:57:23;;;;;;;14.25;8.05;;;3.60;92.60;;;;;;5056165;28;20098;-79
2021/01/11 09:59:49;;;;;;;11.43;6.85;;;3.70;92.60;;;;;;5088358;28;20036;-77
2021/01/11 10:02:15;;;;;;;11.18;6.38;;;3.60;92.60;;;;;;5093390;28;20393;-79
2021/01/11 10:04:41;;;;;;;11.27;6.82;;;3.70;92.60;;;;;;5045867;28;20044;-77
2021/01/11 10:07:08;;;;;;;11.40;6.90;;;3.70;92.60;;;;;;5106852;28;20101;-80
2021/01/11 10:09:42;;;;;;;12.60;7.60;;;3.70;92.60;;;;;;5084768;28;20040;-82
2021/01/11 10:12:12;;;;;;;11.32;6.68;;;3.60;92.60;;;;;;5014912;28;20045;-80
2021/01/11 10:14:48;;;;;;;10.48;6.22;;;3.70;92.60;;;;;;5013741;28;20038;-82
2021/01/11 10:17:20;;;;;;;11.38;5.70;;;3.80;92.60;;;;;;5030500;28;20041;-81
2021/01/11 10:19:46;;;;;;;;;;;3.80;92.60;;;;;;4998598;28;20056;-79
2021/01/11 10:22:45;;;;;;;10.02;5.85;;;3.80;92.60;;;;;;5033271;28;19926;-80
2021/01/11 10:25:20;;;;;;;9.55;5.15;;;3.80;92.60;;;;;;4972237;28;20042;-78
2021/01/11 10:28:13;;;;;;;10.13;5.75;;;3.80;92.50;;;;;;4918026;29;20375;-80
2021/01/11 10:30:49;;;;;;;9.75;5.72;;;3.80;92.50;;;;;;4912499;29;20043;-80
2021/01/11 10:33:17;;;;;;;8.60;5.68;;;3.90;92.50;;;;;;4885867;29;20066;-81
2021/01/11 10:35:43;;;;;;;8.13;5.05;;;3.90;92.50;;;;;;4884095;29;20048;-78
2021/01/11 10:38:08;;;;;;;8.88;5.57;;;3.90;92.50;;;;;;4903849;29;20396;-78
2021/01/11 10:40:34;;;;;;;11.27;5.40;;;3.90;92.50;;;;;;4921089;29;20065;-78
2021/01/11 10:43:00;;;;;;;8.52;5.03;;;3.90;92.50;;;;;;4951882;28;20062;-77
2021/01/11 10:45:31;;;;;;;9.27;5.10;;;3.90;92.50;;;;;;4964775;28;20074;-82
2021/01/11 10:48:01;;;;;;;11.05;5.43;;;4.10;92.60;;;;;;4942851;28;20054;-80
2021/01/11 10:50:28;;;;;;;9.10;5.25;;;4.00;92.50;;;;;;4965569;28;20608;-82
2021/01/11 10:52:57;;;;;;;11.35;5.78;;;3.90;92.50;;;;;;4949982;28;20046;-81
2021/01/11 10:55:43;;;;;;;10.13;5.57;;;4.00;92.80;;;;;;4948197;28;20065;-81
2021/01/11 10:58:12;;;;;;;10.45;5.90;;;4.00;92.50;;;;;;4975692;28;20078;-81
2021/01/11 11:00:41;;;;;;;9.15;5.50;;;3.90;92.40;;;;;;4995598;28;20523;-81
2021/01/11 11:03:08;;;;;;;10.00;6.20;;;4.10;92.50;;;;;;4985580;28;20493;-77
2021/01/11 11:05:36;;;;;;;11.70;6.38;;;4.00;92.50;;;;;;4995824;28;20054;-79
2021/01/11 11:08:31;;;;;;;11.35;6.53;;;4.00;92.50;;;;;;4998014;28;20137;-81
2021/01/11 11:11:19;;;;;;;10.20;6.30;;;4.00;92.50;;;;;;4961834;28;20047;-82
2021/01/11 11:14:06;;;;;;;11.02;6.30;;;4.00;92.50;;;;;;4927724;28;20043;-80
2021/01/11 11:16:32;;;;;;;10.45;6.22;;;4.10;92.50;;;;;;4947794;28;20513;-80
2021/01/11 11:19:00;;;;;;;10.00;6.15;;;4.00;92.40;;;;;;4942428;28;20039;-79
2021/01/11 11:21:26;;;;;;;10.77;6.55;;;4.30;92.50;;;;;;4958232;28;20069;-79
2021/01/11 11:23:52;;;;;;;10.57;6.03;;;4.10;92.40;;;;;;4941712;28;20046;-79
2021/01/11 11:26:21;;;;;;;10.85;6.80;;;4.10;92.40;;;;;;4958170;28;20417;-78
2021/01/11 11:28:47;;;;;;;11.30;6.25;;;4.10;92.40;;;;;;4977788;28;20112;-79
2021/01/11 11:31:13;;;;;;;9.40;5.75;;;4.20;92.40;;;;;;4961638;28;20456;-80
2021/01/11 11:33:40;;;;;;;10.77;6.22;;;4.20;92.40;;;;;;4994446;28;20042;-80
2021/01/11 11:36:06;;;;;;;11.10;6.28;;;4.10;92.30;;;;;;5008237;28;20057;-79
2021/01/11 11:38:32;;;;;;;12.80;6.78;;;4.20;92.30;;;;;;4996651;28;20050;-79
2021/01/11 11:40:57;;;;;;;9.88;5.80;;;4.20;92.30;;;;;;5043404;28;20040;-79
2021/01/11 11:43:23;;;;;;;12.25;7.03;;;4.20;92.30;;;;;;5073245;28;20490;-79
2021/01/11 11:45:49;;;;;;;11.95;6.38;;;4.20;92.30;;;;;;5039406;28;20502;-79
2021/01/11 11:48:15;;;;;;;9.13;5.72;;;4.20;92.30;;;;;;5073778;28;20067;-79
2021/01/11 11:50:42;;;;;;;11.88;6.47;;;4.20;92.30;;;;;;5056510;28;20047;-80
2021/01/11 11:53:08;;;;;;;11.63;7.05;;;4.30;92.40;;;;;;5081489;28;20044;-79
2021/01/11 11:55:35;;;;;;;10.95;6.70;;;4.20;92.30;;;;;;5088626;28;20106;-80
2021/01/11 11:58:00;;;;;;;10.93;6.20;;;4.20;92.30;;;;;;5107236;28;20048;-79
2021/01/11 12:00:26;;;;;;;11.65;6.85;;;4.20;92.30;;;;;;5111348;28;20059;-79
2021/01/11 12:02:52;;;;;;;11.95;6.90;;;4.30;92.30;;;;;;5112607;28;20044;-79
2021/01/11 12:05:18;;;;;;;11.77;6.80;;;4.30;92.30;;;;;;5111830;28;20398;-79
2021/01/11 12:07:49;;;;;;;11.57;6.63;;;4.30;92.30;;;;;;5088177;28;20059;-79
2021/01/11 12:10:18;;;;;;;11.30;6.63;;;4.30;92.30;;;;;;5114757;28;20048;-78
2021/01/11 12:12:44;;;;;;;10.45;6.18;;;4.30;92.20;;;;;;5107835;28;20044;-80
2021/01/11 12:15:11;;;;;;;9.63;5.80;;;4.40;92.30;;;;;;5096856;28;20030;-81
2021/01/11 12:17:37;;;;;;;9.90;5.82;;;4.40;92.20;;;;;;5094753;28;20052;-80
2021/01/11 12:20:05;;;;;;;10.98;6.47;;;4.40;92.20;;;;;;5113998;28;20421;-79
2021/01/11 12:22:30;;;;;;;10.48;6.00;;;4.40;92.20;;;;;;5092332;28;20024;-80
2021/01/11 12:24:56;;;;;;;10.35;6.10;;;4.40;92.20;;;;;;5096259;28;20036;-80
2021/01/11 12:27:22;;;;;;;10.98;6.28;;;4.40;92.20;;;;;;5114110;28;20040;-80
2021/01/11 12:29:48;;;;;;;9.52;5.38;;;4.40;92.20;;;;;;5112929;28;20060;-80
2021/01/11 12:32:13;;;;;;;9.27;4.82;;;4.50;92.20;;;;;;5115542;28;20044;-79
2021/01/11 12:34:40;;;;;;;11.85;6.18;;;4.50;92.10;;;;;;5115583;28;20052;-80
2021/01/11 12:37:07;;;;;;;9.73;6.18;;;4.50;92.10;;;;;;5111730;28;20047;-80
2021/01/11 12:42:58;;;;;;;11.18;6.32;;;4.50;92.10;;;;;;5049045;28;20036;-81
2021/01/11 12:45:27;;;;;;;10.52;6.15;;;4.50;92.10;;;;;;5071602;28;20043;-80
2021/01/11 12:47:52;;;;;;;9.60;5.47;;;4.50;92.10;;;;;;5053786;28;20487;-79
2021/01/11 12:50:18;;;;;;;8.60;4.80;;;4.50;92.10;;;;;;5091011;28;20033;-78
2021/01/11 12:52:46;;;;;;;7.38;4.38;;;4.50;92.10;;;;;;5029976;28;20041;-77
2021/01/11 12:55:12;;;;;;;8.07;4.45;;;4.60;92.10;;;;;;5044692;28;20056;-77
2021/01/11 12:57:38;;;;;;;7.95;4.40;;;4.60;92.10;;;;;;5046376;28;20049;-77
2021/01/11 13:00:05;;;;;;;10.15;4.78;;;4.50;92.10;;;;;;5033403;28;20033;-77
2021/01/11 13:02:32;;;;;;;9.65;5.15;;;4.50;92.10;;;;;;5010442;28;20042;-76
2021/01/11 13:05:00;;;;;;;8.95;5.00;;;4.60;92.10;;;;;;5035843;28;20029;-78
2021/01/11 13:07:25;;;;;;;9.82;5.53;;;4.60;92.10;;;;;;5042832;28;20124;-77
2021/01/11 13:10:01;;;;;;;8.05;4.65;;;4.60;92.10;;;;;;5043540;28;20045;-80
2021/01/11 13:12:29;;;;;;;7.78;4.53;;;4.60;92.10;;;;;;5022246;28;20105;-80
2021/01/11 13:14:55;;;;;;;8.45;4.53;;;4.60;92.10;;;;;;5015461;28;20127;-81
2021/01/11 13:17:21;;;;;;;8.70;4.60;;;4.60;92.10;;;;;;5010864;28;20054;-79
2021/01/11 13:19:47;;;;;;;7.10;4.32;;;4.80;92.20;;;;;;5019065;28;20534;-80
2021/01/11 13:22:13;;;;;;;7.80;4.65;;;4.70;92.10;;;;;;5000253;28;20136;-82
2021/01/11 13:25:05;;;;;;;9.52;5.50;;;4.70;92.10;;;;;;5008085;28;20041;-84
2021/01/11 13:28:05;;;;;;;8.15;4.68;;;4.60;92.00;;;;;;5027105;28;20120;-79
2021/01/11 13:30:37;;;;;;;9.02;5.05;;;4.80;92.00;;;;;;5040257;28;20056;-81
2021/01/11 13:33:06;;;;;;;8.20;4.75;;;4.80;92.10;;;;;;5069359;28;20037;-79